Time;durP1;ratioP1;P1;durP2;ratioP2;P2;SDS_P1;SDS_P2;PMS_P1;PMS_P2;Temp;Humidity;BMP_temperature;BMP_pressure;BME280_temperature;BME280_humidity;BME280_pressure;Samples;Min_cycle;Max_cycle;Signal;HPM_P1;HPM_P2
2023/08/02 00:02:05;;;;;;;3.78;1.92;;;;;14.90;93347.00;;;;7398211;19;20750;-75
2023/08/02 00:04:43;;;;;;;3.72;1.70;;;;;15.00;93342.00;;;;7401584;19;20144;-74
2023/08/02 00:07:11;;;;;;;3.33;1.70;;;;;14.80;93346.00;;;;7401670;19;20133;-75
2023/08/02 00:09:45;;;;;;;2.65;1.70;;;;;14.70;93343.00;;;;7401551;19;20528;-75
2023/08/02 00:12:13;;;;;;;4.15;1.95;;;;;14.70;93350.00;;;;7401736;19;20467;-75
2023/08/02 00:14:47;;;;;;;3.47;1.90;;;;;14.60;93345.00;;;;7400624;19;21115;-76
2023/08/02 00:17:16;;;;;;;3.70;1.90;;;;;14.40;93334.00;;;;7399508;19;20148;-74
2023/08/02 00:19:50;;;;;;;3.15;1.65;;;;;14.30;93322.00;;;;7400628;19;20157;-74
2023/08/02 00:22:18;;;;;;;5.05;1.75;;;;;14.20;93314.00;;;;7400750;19;20125;-73
2023/08/02 00:24:52;;;;;;;4.15;1.90;;;;;14.00;93308.00;;;;7401039;19;20148;-74
2023/08/02 00:27:20;;;;;;;3.38;1.40;;;;;13.90;93311.00;;;;7398781;19;20137;-74
2023/08/02 00:29:54;;;;;;;3.05;1.52;;;;;13.80;93308.00;;;;7400598;19;20144;-74
2023/08/02 00:32:22;;;;;;;2.83;1.60;;;;;13.60;93301.00;;;;7401065;19;20510;-75
2023/08/02 00:34:56;;;;;;;2.33;1.55;;;;;13.50;93290.00;;;;7401764;19;20136;-75
2023/08/02 00:37:37;;;;;;;5.25;1.67;;;;;13.40;93293.00;;;;7397647;19;20299;-77
2023/08/02 00:40:13;;;;;;;7.45;2.00;;;;;13.40;93294.00;;;;7400753;19;20137;-73
2023/08/02 00:42:41;;;;;;;3.00;1.70;;;;;13.50;93282.00;;;;7401083;19;20149;-76
2023/08/02 00:45:15;;;;;;;5.22;1.70;;;;;13.40;93281.00;;;;7400468;19;20136;-75
2023/08/02 00:47:43;;;;;;;2.10;1.90;;;;;13.50;93275.00;;;;7399832;19;20169;-75
2023/08/02 00:50:20;;;;;;;3.55;2.00;;;;;13.50;93267.00;;;;7403359;19;20471;-75
2023/08/02 00:52:54;;;;;;;4.25;2.03;;;;;13.40;93276.00;;;;7395963;19;20145;-75
2023/08/02 00:55:29;;;;;;;3.22;1.90;;;;;13.50;93288.00;;;;7398673;19;20142;-75
2023/08/02 00:57:57;;;;;;;3.50;2.00;;;;;13.50;93291.00;;;;7396506;19;20144;-75
2023/08/02 01:00:32;;;;;;;3.00;1.83;;;;;13.40;93293.00;;;;7393619;19;20140;-76
2023/08/02 01:03:06;;;;;;;4.22;1.92;;;;;13.30;93300.00;;;;7398943;19;20156;-79
2023/08/02 01:05:50;;;;;;;3.60;2.42;;;;;13.20;93290.00;;;;7399135;19;20216;-75
2023/08/02 01:08:28;;;;;;;7.55;1.90;;;;;13.10;93290.00;;;;7399137;19;20151;-74
2023/08/02 01:11:22;;;;;;;3.03;2.10;;;;;13.10;93282.00;;;;7399084;19;20465;-74
2023/08/02 01:13:58;;;;;;;3.92;2.10;;;;;13.10;93275.00;;;;7401496;19;20599;-76
2023/08/02 01:16:35;;;;;;;2.67;1.70;;;;;13.00;93265.00;;;;7397214;19;20249;-76
2023/08/02 01:19:08;;;;;;;4.35;2.20;;;;;13.00;93261.00;;;;7399226;19;20208;-76
2023/08/02 01:21:43;;;;;;;8.52;2.00;;;;;12.90;93266.00;;;;7399163;19;20246;-74
2023/08/02 01:24:11;;;;;;;3.70;1.70;;;;;12.90;93259.00;;;;7399558;19;20515;-73
2023/08/02 01:26:48;;;;;;;6.18;2.08;;;;;12.80;93260.00;;;;7397631;19;20145;-74
2023/08/02 01:29:24;;;;;;;4.88;2.03;;;;;12.80;93269.00;;;;7401220;19;20145;-75
2023/08/02 01:31:55;;;;;;;4.70;2.03;;;;;12.90;93263.00;;;;7399686;19;20157;-73
2023/08/02 01:34:35;;;;;;;4.65;2.00;;;;;12.90;93256.00;;;;7397285;19;20140;-76
2023/08/02 01:37:16;;;;;;;2.92;1.70;;;;;12.80;93254.00;;;;7396959;19;20188;-73
2023/08/02 01:39:57;;;;;;;4.10;2.20;;;;;12.90;93261.00;;;;7398716;19;20141;-75
2023/08/02 01:42:25;;;;;;;4.35;2.17;;;;;12.90;93258.00;;;;7399307;19;20145;-75
2023/08/02 01:44:58;;;;;;;4.40;1.80;;;;;13.00;93245.00;;;;7399088;19;20137;-74
2023/08/02 01:47:26;;;;;;;5.10;2.22;;;;;12.80;93234.00;;;;7398359;19;20146;-75
2023/08/02 01:50:01;;;;;;;3.67;2.20;;;;;12.90;93233.00;;;;7399118;19;20155;-75
2023/08/02 01:52:29;;;;;;;4.82;1.90;;;;;12.90;93227.00;;;;7393705;19;20161;-76
2023/08/02 01:55:04;;;;;;;2.35;1.83;;;;;12.90;93229.00;;;;7398350;19;20147;-75
2023/08/02 01:57:38;;;;;;;3.28;2.10;;;;;12.80;93233.00;;;;7398292;19;20610;-75
2023/08/02 02:00:13;;;;;;;3.00;2.13;;;;;12.80;93225.00;;;;7398789;19;20590;-75
2023/08/02 02:02:41;;;;;;;5.40;2.38;;;;;12.60;93213.00;;;;7394647;19;20180;-76
2023/08/02 02:05:16;;;;;;;4.13;2.00;;;;;12.40;93204.00;;;;7396472;19;20170;-77
2023/08/02 02:07:50;;;;;;;3.03;2.25;;;;;12.40;93207.00;;;;7397499;19;20626;-76
2023/08/02 02:10:24;;;;;;;6.13;2.58;;;;;12.30;93195.00;;;;7397062;19;20615;-78
2023/08/02 02:12:58;;;;;;;6.13;1.98;;;;;12.20;93203.00;;;;7397521;19;20175;-79
2023/08/02 02:15:34;;;;;;;3.10;1.90;;;;;12.10;93205.00;;;;7397277;19;20603;-78
2023/08/02 02:18:07;;;;;;;6.32;2.35;;;;;12.20;93210.00;;;;7396588;19;20153;-79
2023/08/02 02:20:35;;;;;;;4.15;2.40;;;;;12.30;93207.00;;;;7396574;19;20203;-80
2023/08/02 02:23:03;;;;;;;3.58;2.30;;;;;12.50;93196.00;;;;7396013;19;20145;-76
2023/08/02 02:25:37;;;;;;;6.03;2.42;;;;;12.60;93188.00;;;;7395146;19;20602;-78
2023/08/02 02:28:05;;;;;;;3.80;2.63;;;;;12.80;93181.00;;;;7393730;19;20613;-79
2023/08/02 02:30:42;;;;;;;5.43;2.50;;;;;12.80;93177.00;;;;7396908;19;20136;-78
2023/08/02 02:33:10;;;;;;;4.10;2.63;;;;;13.00;93169.00;;;;7397164;19;20154;-80
2023/08/02 02:35:58;;;;;;;7.00;2.78;;;;;13.00;93169.00;;;;7394028;19;20167;-78
2023/08/02 02:38:32;;;;;;;10.60;4.53;;;;;13.00;93168.00;;;;7396023;19;20154;-78
2023/08/02 02:41:06;;;;;;;6.47;2.40;;;;;13.00;93167.00;;;;7394859;19;20223;-78
2023/08/02 02:43:35;;;;;;;6.60;2.30;;;;;13.00;93170.00;;;;7394832;19;20204;-77
2023/08/02 02:46:09;;;;;;;4.38;2.83;;;;;13.10;93164.00;;;;7394233;19;20157;-78
2023/08/02 02:48:37;;;;;;;3.45;2.25;;;;;13.10;93158.00;;;;7397357;19;20667;-78
2023/08/02 02:51:11;;;;;;;5.95;2.65;;;;;13.10;93154.00;;;;7395242;19;20141;-78
2023/08/02 02:53:39;;;;;;;4.80;2.50;;;;;13.10;93154.00;;;;7393682;19;20508;-78
2023/08/02 02:56:07;;;;;;;5.30;2.55;;;;;13.20;93154.00;;;;7395464;19;20136;-77
2023/08/02 02:58:41;;;;;;;7.82;2.92;;;;;13.20;93154.00;;;;7394765;19;20148;-77
2023/08/02 03:01:15;;;;;;;2.70;2.10;;;;;13.30;93144.00;;;;7393025;19;20192;-78
2023/08/02 03:03:50;;;;;;;10.88;2.90;;;;;13.30;93142.00;;;;7394264;19;20152;-80
2023/08/02 03:06:23;;;;;;;4.13;2.15;;;;;13.10;93138.00;;;;7394130;19;20136;-77
2023/08/02 03:08:58;;;;;;;5.18;2.20;;;;;13.10;93129.00;;;;7394769;19;20156;-80
2023/08/02 03:11:25;;;;;;;8.25;2.78;;;;;13.20;93129.00;;;;7393480;19;20242;-80
2023/08/02 03:14:01;;;;;;;5.22;2.20;;;;;13.10;93127.00;;;;7395289;19;20208;-78
2023/08/02 03:16:35;;;;;;;5.80;2.30;;;;;13.10;93127.00;;;;7394689;19;20152;-79
2023/08/02 03:19:04;;;;;;;2.92;2.25;;;;;13.20;93122.00;;;;7395633;19;20835;-77
2023/08/02 03:21:40;;;;;;;8.93;2.33;;;;;13.10;93119.00;;;;7394095;19;20166;-78
2023/08/02 03:24:08;;;;;;;2.75;2.03;;;;;13.10;93107.00;;;;7394070;19;20624;-80
2023/08/02 03:26:43;;;;;;;3.92;2.35;;;;;13.20;93115.00;;;;7393783;19;20670;-78
2023/08/02 03:29:11;;;;;;;4.88;2.20;;;;;13.10;93116.00;;;;7394275;19;20177;-77
2023/08/02 03:31:46;;;;;;;4.55;2.58;;;;;13.30;93107.00;;;;7393652;19;20129;-80
2023/08/02 03:34:14;;;;;;;2.92;2.40;;;;;13.20;93105.00;;;;7394163;19;20706;-80
2023/08/02 03:36:55;;;;;;;6.78;2.95;;;;;13.20;93098.00;;;;7391423;19;20164;-78
2023/08/02 03:39:32;;;;;;;3.25;2.60;;;;;13.20;93100.00;;;;7393841;19;20145;-81
2023/08/02 03:42:07;;;;;;;4.05;2.20;;;;;13.10;93093.00;;;;7394133;19;20140;-78
2023/08/02 03:44:35;;;;;;;5.55;2.78;;;;;13.20;93094.00;;;;7392966;19;20147;-77
2023/08/02 03:47:09;;;;;;;3.35;2.47;;;;;13.20;93086.00;;;;7395110;19;20245;-77
2023/08/02 03:49:39;;;;;;;3.17;2.17;;;;;13.00;93082.00;;;;7393730;19;20140;-82
2023/08/02 03:52:15;;;;;;;4.93;2.70;;;;;13.00;93063.00;;;;7395457;19;20176;-80
2023/08/02 03:54:42;;;;;;;8.45;2.55;;;;;13.10;93066.00;;;;7400962;19;20153;-79
2023/08/02 03:57:17;;;;;;;4.63;2.25;;;;;13.10;93057.00;;;;7400394;19;20144;-77
2023/08/02 03:59:45;;;;;;;2.97;2.28;;;;;13.10;93052.00;;;;7398660;19;20156;-76
2023/08/02 04:02:19;;;;;;;7.40;2.58;;;;;13.00;93046.00;;;;7397281;19;20179;-78
2023/08/02 04:04:47;;;;;;;5.35;2.45;;;;;13.00;93043.00;;;;7394267;19;20153;-78
2023/08/02 04:07:22;;;;;;;4.63;2.53;;;;;12.90;93042.00;;;;7395563;19;20144;-78
2023/08/02 04:09:52;;;;;;;3.03;2.08;;;;;12.90;93039.00;;;;7399298;19;20145;-75
2023/08/02 04:12:20;;;;;;;3.40;3.00;;;;;12.90;93049.00;;;;7393165;19;20182;-77
2023/08/02 04:14:55;;;;;;;3.42;2.63;;;;;12.80;93042.00;;;;7400046;19;20116;-75
2023/08/02 04:17:25;;;;;;;4.60;2.80;;;;;12.80;93030.00;;;;7399566;19;20647;-75
2023/08/02 04:20:02;;;;;;;10.80;2.58;;;;;12.60;93024.00;;;;7399785;19;20185;-77
2023/08/02 04:22:32;;;;;;;5.40;2.80;;;;;12.60;93012.00;;;;7399727;19;20153;-78
2023/08/02 04:25:06;;;;;;;7.43;2.55;;;;;12.60;93011.00;;;;7400805;19;20602;-75
2023/08/02 04:27:36;;;;;;;3.58;2.80;;;;;12.70;93007.00;;;;7398509;19;20140;-74
2023/08/02 04:30:11;;;;;;;8.65;3.10;;;;;12.70;93020.00;;;;7399479;19;20553;-73
2023/08/02 04:32:39;;;;;;;4.93;2.88;;;;;12.70;93015.00;;;;7401337;19;20149;-74
2023/08/02 04:35:13;;;;;;;7.82;3.00;;;;;12.70;92998.00;;;;7399986;19;20622;-75
2023/08/02 04:37:48;;;;;;;3.67;2.72;;;;;12.80;92993.00;;;;7377986;19;20346;-76
2023/08/02 04:40:25;;;;;;;7.57;3.17;;;;;12.70;92990.00;;;;7370285;19;20188;-75
2023/08/02 04:43:00;;;;;;;5.75;3.10;;;;;12.70;92987.00;;;;7385620;19;20128;-74
2023/08/02 04:45:34;;;;;;;5.85;2.97;;;;;12.60;92980.00;;;;7386558;19;20495;-77
2023/08/02 04:48:03;;;;;;;3.83;3.00;;;;;12.70;92977.00;;;;7386875;19;20148;-75
2023/08/02 04:50:39;;;;;;;6.32;3.13;;;;;12.70;92974.00;;;;7387154;19;20148;-76
2023/08/02 04:53:06;;;;;;;5.30;2.88;;;;;12.70;92978.00;;;;7387478;19;20153;-76
2023/08/02 04:55:42;;;;;;;4.13;2.90;;;;;12.60;92979.00;;;;7386288;19;20141;-76
2023/08/02 04:58:16;;;;;;;8.10;2.92;;;;;12.70;92975.00;;;;7386341;19;20129;-77
2023/08/02 05:00:50;;;;;;;6.47;3.20;;;;;12.70;92977.00;;;;7386653;19;21039;-77
2023/08/02 05:03:18;;;;;;;6.25;3.25;;;;;12.70;92973.00;;;;7385310;19;20168;-78
2023/08/02 05:06:01;;;;;;;6.50;3.17;;;;;12.80;92966.00;;;;7386363;19;20156;-77
2023/08/02 05:08:38;;;;;;;8.60;3.17;;;;;12.80;92958.00;;;;7384185;19;20152;-76
2023/08/02 05:11:15;;;;;;;7.65;3.22;;;;;12.80;92961.00;;;;7386956;19;20540;-79
2023/08/02 05:13:43;;;;;;;4.95;3.65;;;;;12.80;92944.00;;;;7373403;19;20603;-79
2023/08/02 05:16:17;;;;;;;7.03;3.20;;;;;12.70;92954.00;;;;7385324;19;20148;-80
2023/08/02 05:18:45;;;;;;;5.55;3.85;;;;;12.80;92947.00;;;;7381117;19;20493;-78
2023/08/02 05:21:26;;;;;;;4.28;3.88;;;;;12.80;92947.00;;;;7395368;19;20478;-77
2023/08/02 05:24:01;;;;;;;8.25;4.35;;;;;12.90;92949.00;;;;7398659;19;20149;-78
2023/08/02 05:26:37;;;;;;;7.57;3.88;;;;;12.80;92945.00;;;;7397400;19;20213;-76
2023/08/02 05:29:11;;;;;;;8.32;3.58;;;;;12.90;92941.00;;;;7395517;19;20145;-81
2023/08/02 05:31:40;;;;;;;6.38;3.50;;;;;12.80;92948.00;;;;7397715;19;20224;-78
2023/08/02 05:34:16;;;;;;;4.68;3.50;;;;;12.80;92946.00;;;;7397384;19;20168;-77
2023/08/02 05:36:49;;;;;;;6.78;3.85;;;;;12.90;92934.00;;;;7396595;19;20148;-79
2023/08/02 05:39:23;;;;;;;4.30;3.75;;;;;13.00;92925.00;;;;7397095;19;20656;-78
2023/08/02 05:41:57;;;;;;;4.45;3.50;;;;;13.00;92927.00;;;;7396679;19;20145;-77
2023/08/02 05:44:25;;;;;;;6.20;3.65;;;;;13.00;92928.00;;;;7390752;19;20136;-77
2023/08/02 05:46:52;;;;;;;6.97;3.53;;;;;12.90;92923.00;;;;7397026;19;20488;-75
2023/08/02 05:49:26;;;;;;;4.97;3.60;;;;;13.00;92916.00;;;;7395162;19;20152;-76
2023/08/02 05:51:54;;;;;;;4.63;3.30;;;;;13.00;92926.00;;;;7395541;19;20450;-75
2023/08/02 05:54:28;;;;;;;4.63;3.40;;;;;13.00;92919.00;;;;7399410;19;20128;-76
2023/08/02 05:56:56;;;;;;;5.07;3.50;;;;;12.90;92929.00;;;;7396412;19;20176;-75
2023/08/02 05:59:30;;;;;;;5.25;3.40;;;;;13.00;92920.00;;;;7396625;19;20634;-77
2023/08/02 06:02:06;;;;;;;4.80;3.13;;;;;13.10;92907.00;;;;7394472;19;20172;-76
2023/08/02 06:04:43;;;;;;;4.40;3.63;;;;;13.10;92903.00;;;;7396064;19;20133;-76
2023/08/02 06:07:11;;;;;;;4.57;3.45;;;;;13.10;92902.00;;;;7397174;19;20137;-74
2023/08/02 06:09:48;;;;;;;7.25;3.67;;;;;13.20;92881.00;;;;7397661;19;20128;-76
2023/08/02 06:12:16;;;;;;;3.88;2.88;;;;;13.30;92895.00;;;;7396706;19;20212;-75
2023/08/02 06:14:44;;;;;;;4.68;2.90;;;;;13.50;92882.00;;;;7393818;19;20519;-75
2023/08/02 06:17:18;;;;;;;4.20;2.90;;;;;13.60;92890.00;;;;7392752;19;20148;-74
2023/08/02 06:19:46;;;;;;;5.22;3.28;;;;;13.60;92877.00;;;;7395853;19;20147;-75
2023/08/02 06:22:20;;;;;;;4.22;3.20;;;;;13.60;92868.00;;;;7397244;19;20184;-75
2023/08/02 06:24:48;;;;;;;5.57;3.20;;;;;13.70;92878.00;;;;7395667;19;20974;-75
2023/08/02 06:27:24;;;;;;;5.43;2.85;;;;;13.70;92867.00;;;;7392472;19;20133;-75
2023/08/02 06:29:52;;;;;;;5.30;3.40;;;;;13.80;92862.00;;;;7396196;19;20129;-75
2023/08/02 06:32:26;;;;;;;5.47;3.50;;;;;14.10;92854.00;;;;7394802;19;20179;-74
2023/08/02 06:34:54;;;;;;;5.03;3.33;;;;;14.10;92857.00;;;;7397147;19;20136;-75
2023/08/02 06:37:51;;;;;;;5.63;2.83;;;;;14.20;92850.00;;;;7392461;19;20228;-75
2023/08/02 06:40:25;;;;;;;3.47;2.45;;;;;14.20;92844.00;;;;7395129;19;20608;-76
2023/08/02 06:42:59;;;;;;;4.18;2.80;;;;;14.10;92849.00;;;;7395303;19;20624;-74
2023/08/02 06:45:33;;;;;;;4.80;2.83;;;;;14.10;92839.00;;;;7391175;19;20168;-77
2023/08/02 06:48:01;;;;;;;4.55;2.42;;;;;14.10;92846.00;;;;7394804;19;20149;-75
2023/08/02 06:50:38;;;;;;;2.72;2.40;;;;;14.30;92836.00;;;;7395446;19;20136;-75
2023/08/02 06:53:06;;;;;;;4.35;2.60;;;;;14.30;92829.00;;;;7395333;19;20212;-73
2023/08/02 06:55:36;;;;;;;2.33;1.88;;;;;14.40;92829.00;;;;7392823;19;20149;-75
2023/08/02 06:58:17;;;;;;;1.95;1.65;;;;;14.50;92824.00;;;;7393960;19;20575;-76
2023/08/02 07:00:44;;;;;;;2.10;1.70;;;;;14.60;92832.00;;;;7392966;19;20154;-75
2023/08/02 07:03:21;;;;;;;2.10;1.40;;;;;14.90;92821.00;;;;7391948;19;20137;-77
2023/08/02 07:05:49;;;;;;;2.03;1.70;;;;;15.00;92818.00;;;;7390679;19;20159;-75
2023/08/02 07:08:23;;;;;;;2.28;1.65;;;;;15.10;92815.00;;;;7391432;19;20152;-75
2023/08/02 07:10:51;;;;;;;3.83;1.67;;;;;15.10;92810.00;;;;7393470;19;20137;-76
2023/08/02 07:13:25;;;;;;;2.53;1.20;;;;;15.10;92803.00;;;;7395228;19;20495;-74
2023/08/02 07:16:00;;;;;;;1.60;1.50;;;;;15.00;92812.00;;;;7393405;19;20598;-75
2023/08/02 07:18:34;;;;;;;1.83;1.40;;;;;14.90;92810.00;;;;7395002;19;20135;-76
2023/08/02 07:21:09;;;;;;;2.58;1.50;;;;;14.80;92803.00;;;;7393926;19;20208;-76
2023/08/02 07:23:43;;;;;;;1.40;1.27;;;;;14.70;92799.00;;;;7393306;19;20733;-76
2023/08/02 07:26:17;;;;;;;2.67;1.15;;;;;14.90;92807.00;;;;7397677;19;20129;-75
2023/08/02 07:28:52;;;;;;;1.42;1.00;;;;;14.80;92788.00;;;;7399705;19;20164;-76
2023/08/02 07:31:26;;;;;;;2.65;1.10;;;;;14.90;92788.00;;;;7400194;19;20145;-76
2023/08/02 07:33:54;;;;;;;1.35;1.02;;;;;14.90;92793.00;;;;7403423;19;20140;-76
2023/08/02 07:36:35;;;;;;;1.85;1.00;;;;;14.80;92791.00;;;;7399926;19;20157;-77
2023/08/02 07:39:16;;;;;;;0.80;0.80;;;;;14.80;92795.00;;;;7400661;19;20606;-78
2023/08/02 07:41:50;;;;;;;1.15;0.98;;;;;14.90;92784.00;;;;7400869;19;20149;-76
2023/08/02 07:44:18;;;;;;;1.70;1.25;;;;;15.10;92775.00;;;;7400411;19;20151;-78
2023/08/02 07:46:52;;;;;;;1.08;0.98;;;;;15.00;92764.00;;;;7402085;19;20159;-75
2023/08/02 07:49:27;;;;;;;1.77;1.20;;;;;15.20;92765.00;;;;7398825;19;20151;-77
2023/08/02 07:52:01;;;;;;;1.20;1.10;;;;;15.10;92757.00;;;;7400659;19;20611;-75
2023/08/02 07:54:35;;;;;;;0.80;0.80;;;;;15.00;92761.00;;;;7400074;19;20145;-76
2023/08/02 07:57:30;;;;;;;0.80;0.80;;;;;15.00;92772.00;;;;7400755;19;20659;-76
2023/08/02 07:59:59;;;;;;;1.42;1.25;;;;;15.00;92758.00;;;;7401076;19;20147;-76
2023/08/02 08:02:34;;;;;;;1.27;1.17;;;;;15.20;92749.00;;;;7397449;19;20735;-76
2023/08/02 08:05:09;;;;;;;1.63;0.85;;;;;15.20;92759.00;;;;7400333;19;20157;-74
2023/08/02 08:07:43;;;;;;;1.73;1.20;;;;;15.20;92762.00;;;;7400740;19;20158;-75
2023/08/02 08:10:11;;;;;;;1.52;1.38;;;;;15.10;92756.00;;;;7397511;19;20149;-76
2023/08/02 08:12:45;;;;;;;1.20;1.10;;;;;15.10;92759.00;;;;7400701;19;20218;-76
2023/08/02 08:15:19;;;;;;;1.33;1.10;;;;;15.10;92754.00;;;;7397063;19;20148;-74
2023/08/02 08:17:54;;;;;;;1.50;1.30;;;;;15.20;92742.00;;;;7400104;19;20144;-75
2023/08/02 08:20:22;;;;;;;1.30;1.20;;;;;15.30;92757.00;;;;7401091;19;20141;-76
2023/08/02 08:22:57;;;;;;;1.30;1.20;;;;;15.40;92743.00;;;;7402286;19;20140;-75
2023/08/02 08:25:32;;;;;;;1.98;1.45;;;;;15.30;92745.00;;;;7400091;19;20207;-75
2023/08/02 08:28:06;;;;;;;2.08;1.60;;;;;15.30;92754.00;;;;7401713;19;20140;-76
2023/08/02 08:30:34;;;;;;;1.70;1.40;;;;;15.40;92739.00;;;;7400854;19;20494;-78
2023/08/02 08:33:10;;;;;;;1.50;1.40;;;;;15.40;92748.00;;;;7400315;19;20820;-79
2023/08/02 08:35:44;;;;;;;1.98;1.63;;;;;15.30;92744.00;;;;7401240;19;20171;-75
2023/08/02 08:38:25;;;;;;;1.65;1.50;;;;;15.40;92739.00;;;;7396109;19;20175;-75
2023/08/02 08:40:53;;;;;;;2.38;1.58;;;;;15.30;92740.00;;;;7401602;19;20631;-76
2023/08/02 08:43:28;;;;;;;1.90;1.40;;;;;15.30;92747.00;;;;7401167;19;20132;-74
2023/08/02 08:45:56;;;;;;;2.03;1.48;;;;;15.20;92743.00;;;;7400559;19;20140;-74
2023/08/02 08:48:33;;;;;;;1.92;1.60;;;;;15.30;92739.00;;;;7401273;19;20132;-77
2023/08/02 08:51:10;;;;;;;2.40;1.98;;;;;15.30;92747.00;;;;7402577;19;20148;-75
2023/08/02 08:53:46;;;;;;;1.85;1.58;;;;;15.30;92740.00;;;;7398399;19;20620;-76
2023/08/02 08:56:17;;;;;;;4.03;1.77;;;;;15.20;92732.00;;;;7399352;19;20168;-76
2023/08/02 08:58:54;;;;;;;2.25;1.88;;;;;15.20;92732.00;;;;7399406;19;20508;-76
2023/08/02 09:01:24;;;;;;;1.50;1.40;;;;;15.30;92726.00;;;;7397226;19;20215;-77
2023/08/02 09:03:59;;;;;;;2.20;2.00;;;;;15.40;92721.00;;;;7399620;19;20678;-77
2023/08/02 09:06:28;;;;;;;2.33;1.90;;;;;15.40;92718.00;;;;7399626;19;20172;-75
2023/08/02 09:09:03;;;;;;;2.58;2.17;;;;;15.50;92707.00;;;;7397671;19;20144;-75
2023/08/02 09:11:38;;;;;;;3.67;1.90;;;;;15.60;92718.00;;;;7399340;19;20614;-77
2023/08/02 09:14:11;;;;;;;2.80;2.15;;;;;15.60;92699.00;;;;7398561;19;20600;-76
2023/08/02 09:17:02;;;;;;;2.83;2.20;;;;;15.80;92708.00;;;;7393346;19;20248;-74
2023/08/02 09:19:33;;;;;;;2.17;1.95;;;;;15.80;92703.00;;;;7399054;19;20606;-75
2023/08/02 09:22:13;;;;;;;2.20;1.90;;;;;15.90;92707.00;;;;7399513;19;20515;-75
2023/08/02 09:24:45;;;;;;;2.30;1.92;;;;;15.80;92690.00;;;;7398289;19;20140;-77
2023/08/02 09:27:20;;;;;;;2.15;1.90;;;;;15.80;92699.00;;;;7398710;19;20152;-74
2023/08/02 09:29:55;;;;;;;2.95;1.98;;;;;15.80;92701.00;;;;7398685;19;20152;-77
2023/08/02 09:32:24;;;;;;;2.05;1.85;;;;;15.90;92690.00;;;;7397225;19;20149;-76
2023/08/02 09:34:59;;;;;;;2.00;1.80;;;;;15.80;92694.00;;;;7397899;19;20148;-78
2023/08/02 09:37:47;;;;;;;2.30;1.90;;;;;15.80;92687.00;;;;7397064;19;20468;-77
2023/08/02 09:40:36;;;;;;;2.03;1.60;;;;;15.90;92696.00;;;;7397783;19;20152;-77
2023/08/02 09:43:30;;;;;;;2.08;1.75;;;;;15.90;92703.00;;;;7393443;19;20178;-76
2023/08/02 09:46:39;;;;;;;4.20;1.63;;;;;16.00;92689.00;;;;7397315;19;20167;-79
2023/08/02 09:49:21;;;;;;;2.50;1.48;;;;;16.20;92685.00;;;;7393174;19;20136;-75
2023/08/02 09:51:55;;;;;;;2.33;1.65;;;;;16.20;92687.00;;;;7397516;19;20601;-75
2023/08/02 09:54:31;;;;;;;1.88;1.63;;;;;16.30;92686.00;;;;7397771;19;20487;-75
2023/08/02 09:57:06;;;;;;;1.45;1.35;;;;;16.20;92678.00;;;;7396985;19;20155;-75
2023/08/02 09:59:36;;;;;;;1.80;1.58;;;;;16.30;92674.00;;;;7397133;19;20133;-74
2023/08/02 10:02:11;;;;;;;1.98;1.67;;;;;16.10;92682.00;;;;7397873;19;20145;-77
2023/08/02 10:04:48;;;;;;;3.60;1.38;;;;;16.10;92664.00;;;;7395791;19;20133;-77
2023/08/02 10:07:46;;;;;;;1.65;1.50;;;;;16.20;92646.00;;;;7397294;19;20619;-76
2023/08/02 10:10:30;;;;;;;5.50;1.52;;;;;16.50;92652.00;;;;7396311;19;20221;-76
2023/08/02 10:13:21;;;;;;;2.05;1.60;;;;;16.40;92663.00;;;;7397613;19;20143;-76
2023/08/02 10:15:58;;;;;;;2.05;1.70;;;;;16.40;92656.00;;;;7396645;19;20137;-75
2023/08/02 10:18:34;;;;;;;2.00;1.58;;;;;16.30;92659.00;;;;7396451;19;20156;-77
2023/08/02 10:21:10;;;;;;;1.92;1.60;;;;;16.30;92642.00;;;;7395873;19;20583;-76
2023/08/02 10:23:46;;;;;;;1.73;1.50;;;;;16.40;92635.00;;;;7396609;19;20615;-76
2023/08/02 10:26:22;;;;;;;2.15;1.85;;;;;16.40;92633.00;;;;7395794;19;20153;-76
2023/08/02 10:28:59;;;;;;;3.20;1.60;;;;;16.60;92626.00;;;;7396809;19;20144;-75
2023/08/02 10:31:27;;;;;;;2.20;1.83;;;;;16.40;92646.00;;;;7397487;19;20133;-75
2023/08/02 10:34:21;;;;;;;2.55;2.13;;;;;16.40;92655.00;;;;7395027;19;20148;-77
2023/08/02 10:36:56;;;;;;;3.65;2.22;;;;;16.30;92645.00;;;;7395780;19;20225;-77
2023/08/02 10:39:53;;;;;;;3.75;2.63;;;;;16.50;92632.00;;;;7397637;19;20592;-76
2023/08/02 10:42:49;;;;;;;3.63;2.80;;;;;16.50;92624.00;;;;7398592;19;20456;-75
2023/08/02 10:45:24;;;;;;;4.95;3.08;;;;;16.70;92626.00;;;;7397579;19;20600;-76
2023/08/02 10:48:22;;;;;;;3.80;3.10;;;;;16.80;92628.00;;;;7397345;19;20756;-75
2023/08/02 10:50:58;;;;;;;6.13;3.88;;;;;16.70;92626.00;;;;7392990;19;20157;-76
2023/08/02 10:53:26;;;;;;;5.20;4.10;;;;;16.70;92618.00;;;;7395632;19;20145;-76
2023/08/02 10:56:16;;;;;;;6.20;3.78;;;;;16.80;92620.00;;;;7394232;19;20144;-77
2023/08/02 10:58:53;;;;;;;4.97;3.65;;;;;16.70;92618.00;;;;7395593;19;20156;-75
2023/08/02 11:01:21;;;;;;;10.90;4.18;;;;;16.80;92609.00;;;;7398540;19;20148;-74
2023/08/02 11:03:57;;;;;;;5.07;4.15;;;;;16.80;92615.00;;;;7402408;19;20136;-75
2023/08/02 11:06:33;;;;;;;5.18;4.22;;;;;16.80;92588.00;;;;7402501;19;20605;-73
2023/08/02 11:09:02;;;;;;;5.18;3.92;;;;;17.10;92587.00;;;;7403135;19;20622;-74
2023/08/02 11:11:37;;;;;;;9.27;4.63;;;;;17.20;92584.00;;;;7403512;19;20144;-74
2023/08/02 11:14:05;;;;;;;6.57;4.82;;;;;17.50;92561.00;;;;7402803;19;20144;-74
2023/08/02 11:16:41;;;;;;;6.63;4.22;;;;;17.60;92576.00;;;;7397622;19;20235;-75
2023/08/02 11:19:24;;;;;;;4.65;4.15;;;;;17.90;92580.00;;;;7403427;19;20157;-74
2023/08/02 11:22:03;;;;;;;6.07;4.43;;;;;18.10;92585.00;;;;7403983;19;20125;-75
2023/08/02 11:24:45;;;;;;;5.13;4.25;;;;;17.90;92579.00;;;;7402561;19;20129;-74
2023/08/02 11:27:20;;;;;;;5.15;4.22;;;;;17.70;92592.00;;;;7401006;19;20156;-72
2023/08/02 11:30:07;;;;;;;6.15;4.28;;;;;17.60;92594.00;;;;7400906;19;20148;-74
2023/08/02 11:32:46;;;;;;;4.55;3.90;;;;;17.90;92587.00;;;;7405332;19;20129;-74
2023/08/02 11:35:21;;;;;;;6.18;4.03;;;;;18.00;92590.00;;;;7402849;19;20749;-75
2023/08/02 11:38:03;;;;;;;5.78;3.50;;;;;18.20;92581.00;;;;7399478;19;20156;-73
2023/08/02 11:40:37;;;;;;;6.90;3.83;;;;;18.20;92567.00;;;;7401443;19;20148;-77
2023/08/02 11:43:14;;;;;;;3.95;3.55;;;;;18.20;92561.00;;;;7402033;19;20587;-74
2023/08/02 11:45:42;;;;;;;4.35;3.47;;;;;18.40;92572.00;;;;7400938;19;20156;-75
2023/08/02 11:48:26;;;;;;;6.30;3.38;;;;;18.40;92579.00;;;;7404133;19;20135;-74
2023/08/02 11:51:00;;;;;;;5.63;3.22;;;;;18.50;92567.00;;;;7402392;19;20149;-74
2023/08/02 11:53:29;;;;;;;4.80;3.28;;;;;18.60;92581.00;;;;7402043;19;20607;-73
2023/08/02 11:55:57;;;;;;;5.57;3.20;;;;;18.70;92556.00;;;;7401647;19;20159;-75
2023/08/02 11:58:32;;;;;;;4.10;3.10;;;;;18.70;92556.00;;;;7402957;19;20132;-73
2023/08/02 12:01:07;;;;;;;3.78;3.20;;;;;19.00;92546.00;;;;7400318;19;20627;-74
2023/08/02 12:04:01;;;;;;;3.55;3.00;;;;;18.80;92550.00;;;;7402644;19;20629;-74
2023/08/02 12:06:50;;;;;;;3.17;2.88;;;;;19.10;92549.00;;;;7401199;19;20157;-74
2023/08/02 12:09:40;;;;;;;3.90;2.90;;;;;19.50;92540.00;;;;7401312;19;20145;-77
2023/08/02 12:12:08;;;;;;;4.72;3.00;;;;;19.80;92540.00;;;;7401296;19;20133;-75
2023/08/02 12:14:42;;;;;;;3.40;2.72;;;;;20.00;92557.00;;;;7399759;19;20148;-74
2023/08/02 12:17:17;;;;;;;6.53;2.90;;;;;19.70;92535.00;;;;7400768;19;20163;-73
2023/08/02 12:19:52;;;;;;;4.25;3.03;;;;;20.00;92531.00;;;;7400064;19;20624;-77
2023/08/02 12:22:20;;;;;;;4.50;2.50;;;;;20.50;92494.00;;;;7401282;19;20161;-77
2023/08/02 12:25:05;;;;;;;3.33;2.80;;;;;21.00;92537.00;;;;7399208;19;20687;-75
2023/08/02 12:27:40;;;;;;;4.20;2.65;;;;;20.50;92520.00;;;;7401050;19;20153;-74
2023/08/02 12:30:11;;;;;;;3.25;2.40;;;;;20.20;92520.00;;;;7402005;19;20485;-74
2023/08/02 12:32:47;;;;;;;4.68;3.17;;;;;19.90;92523.00;;;;7402831;19;20456;-73
2023/08/02 12:35:21;;;;;;;3.20;2.90;;;;;20.10;92521.00;;;;7400312;19;20156;-75
2023/08/02 12:38:02;;;;;;;3.25;2.95;;;;;20.30;92511.00;;;;7400135;19;20165;-78
2023/08/02 12:40:32;;;;;;;3.78;3.08;;;;;20.40;92525.00;;;;7400558;19;20212;-77
2023/08/02 12:43:08;;;;;;;4.40;3.13;;;;;20.40;92522.00;;;;7398455;19;20599;-78
2023/08/02 12:45:44;;;;;;;4.45;2.75;;;;;20.30;92523.00;;;;7400752;19;20157;-78
2023/08/02 12:48:20;;;;;;;3.70;2.70;;;;;20.00;92519.00;;;;7400436;19;20486;-79
2023/08/02 12:50:54;;;;;;;4.78;3.08;;;;;20.20;92527.00;;;;7398311;19;20173;-81
2023/08/02 12:53:22;;;;;;;4.03;2.67;;;;;20.10;92536.00;;;;7401707;19;20614;-77
2023/08/02 12:55:52;;;;;;;5.10;2.78;;;;;20.30;92526.00;;;;7400827;19;20152;-76